sensor_id;sensor_type;location;lat;lon;timestamp;temperature;humidity
57264;DHT22;43113;53.124;6.092;2022-11-15T00:01:55;8.00;99.90
57264;DHT22;43113;53.124;6.092;2022-11-15T00:04:21;7.60;99.90
57264;DHT22;43113;53.124;6.092;2022-11-15T00:06:47;8.00;99.90
57264;DHT22;43113;53.124;6.092;2022-11-15T00:09:12;7.40;99.90
57264;DHT22;43113;53.124;6.092;2022-11-15T00:11:38;6.30;99.90
57264;DHT22;43113;53.124;6.092;2022-11-15T00:14:04;6.40;99.90
57264;DHT22;43113;53.124;6.092;2022-11-15T00:16:29;6.40;99.90
57264;DHT22;43113;53.124;6.092;2022-11-15T00:18:55;6.50;99.90
57264;DHT22;43113;53.124;6.092;2022-11-15T00:21:22;6.60;99.90
57264;DHT22;43113;53.124;6.092;2022-11-15T00:23:48;6.70;99.90
57264;DHT22;43113;53.124;6.092;2022-11-15T00:26:14;6.70;99.90
57264;DHT22;43113;53.124;6.092;2022-11-15T00:28:41;6.80;99.90
57264;DHT22;43113;53.124;6.092;2022-11-15T00:31:09;7.70;99.90
57264;DHT22;43113;53.124;6.092;2022-11-15T00:33:35;7.10;99.90
57264;DHT22;43113;53.124;6.092;2022-11-15T00:36:06;6.90;99.90
57264;DHT22;43113;53.124;6.092;2022-11-15T00:38:33;6.90;99.90
57264;DHT22;43113;53.124;6.092;2022-11-15T00:41:00;7.00;99.90
57264;DHT22;43113;53.124;6.092;2022-11-15T00:43:26;7.90;99.90
57264;DHT22;43113;53.124;6.092;2022-11-15T00:45:52;7.00;99.90
57264;DHT22;43113;53.124;6.092;2022-11-15T00:48:18;7.00;99.90
57264;DHT22;43113;53.124;6.092;2022-11-15T00:50:44;7.30;99.90
57264;DHT22;43113;53.124;6.092;2022-11-15T00:53:10;8.10;99.90
57264;DHT22;43113;53.124;6.092;2022-11-15T00:55:36;8.50;99.90
57264;DHT22;43113;53.124;6.092;2022-11-15T00:58:02;7.40;99.90
57264;DHT22;43113;53.124;6.092;2022-11-15T01:00:27;7.10;99.90
57264;DHT22;43113;53.124;6.092;2022-11-15T01:02:53;7.70;99.90
57264;DHT22;43113;53.124;6.092;2022-11-15T01:05:19;7.10;99.90
57264;DHT22;43113;53.124;6.092;2022-11-15T01:07:45;7.60;99.90
57264;DHT22;43113;53.124;6.092;2022-11-15T01:10:11;7.80;99.90
57264;DHT22;43113;53.124;6.092;2022-11-15T01:12:36;7.10;99.90
57264;DHT22;43113;53.124;6.092;2022-11-15T01:15:03;7.90;99.90
57264;DHT22;43113;53.124;6.092;2022-11-15T01:17:30;7.10;99.90
57264;DHT22;43113;53.124;6.092;2022-11-15T01:19:58;7.10;99.90
57264;DHT22;43113;53.124;6.092;2022-11-15T01:22:27;7.10;99.90
57264;DHT22;43113;53.124;6.092;2022-11-15T01:27:19;7.10;99.90
57264;DHT22;43113;53.124;6.092;2022-11-15T01:29:44;7.10;99.90
57264;DHT22;43113;53.124;6.092;2022-11-15T01:32:10;7.00;99.90
57264;DHT22;43113;53.124;6.092;2022-11-15T01:34:36;7.00;99.90
57264;DHT22;43113;53.124;6.092;2022-11-15T01:37:02;8.60;99.90
57264;DHT22;43113;53.124;6.092;2022-11-15T01:39:28;8.00;99.90
57264;DHT22;43113;53.124;6.092;2022-11-15T01:41:54;7.60;99.90
57264;DHT22;43113;53.124;6.092;2022-11-15T01:47:07;7.70;99.90
57264;DHT22;43113;53.124;6.092;2022-11-15T01:49:35;7.80;99.90
57264;DHT22;43113;53.124;6.092;2022-11-15T01:52:06;8.50;99.90
57264;DHT22;43113;53.124;6.092;2022-11-15T01:54:32;8.10;99.90
57264;DHT22;43113;53.124;6.092;2022-11-15T01:57:07;6.80;99.90
57264;DHT22;43113;53.124;6.092;2022-11-15T01:59:35;6.80;99.90
57264;DHT22;43113;53.124;6.092;2022-11-15T02:02:02;6.70;99.90
57264;DHT22;43113;53.124;6.092;2022-11-15T02:04:30;6.70;99.90
57264;DHT22;43113;53.124;6.092;2022-11-15T02:06:56;6.90;99.90
57264;DHT22;43113;53.124;6.092;2022-11-15T02:09:22;7.30;99.90
57264;DHT22;43113;53.124;6.092;2022-11-15T02:11:50;8.10;99.90
57264;DHT22;43113;53.124;6.092;2022-11-15T02:14:18;7.40;99.90
57264;DHT22;43113;53.124;6.092;2022-11-15T02:20:28;6.60;99.90
57264;DHT22;43113;53.124;6.092;2022-11-15T02:26:40;6.60;99.90
57264;DHT22;43113;53.124;6.092;2022-11-15T02:29:47;6.60;99.90
57264;DHT22;43113;53.124;6.092;2022-11-15T02:32:18;6.60;99.90
57264;DHT22;43113;53.124;6.092;2022-11-15T02:35:02;6.60;99.90
57264;DHT22;43113;53.124;6.092;2022-11-15T02:37:56;6.60;99.90
57264;DHT22;43113;53.124;6.092;2022-11-15T02:40:45;6.60;99.90
57264;DHT22;43113;53.124;6.092;2022-11-15T02:43:24;6.60;99.90
57264;DHT22;43113;53.124;6.092;2022-11-15T02:46:38;6.60;99.90
57264;DHT22;43113;53.124;6.092;2022-11-15T02:49:29;6.60;99.90
57264;DHT22;43113;53.124;6.092;2022-11-15T02:51:56;6.70;99.90
57264;DHT22;43113;53.124;6.092;2022-11-15T02:54:29;6.60;99.90
57264;DHT22;43113;53.124;6.092;2022-11-15T02:57:07;6.60;99.90
57264;DHT22;43113;53.124;6.092;2022-11-15T02:59:43;6.60;99.90
57264;DHT22;43113;53.124;6.092;2022-11-15T03:07:54;6.60;99.90
57264;DHT22;43113;53.124;6.092;2022-11-15T03:12:57;6.70;99.90
57264;DHT22;43113;53.124;6.092;2022-11-15T03:18:23;6.70;99.90
57264;DHT22;43113;53.124;6.092;2022-11-15T03:20:52;7.60;99.90
57264;DHT22;43113;53.124;6.092;2022-11-15T03:25:48;6.70;99.90
57264;DHT22;43113;53.124;6.092;2022-11-15T03:28:36;7.70;99.90
57264;DHT22;43113;53.124;6.092;2022-11-15T03:31:04;6.80;99.90
57264;DHT22;43113;53.124;6.092;2022-11-15T03:33:53;6.80;99.90
57264;DHT22;43113;53.124;6.092;2022-11-15T03:36:21;7.90;99.90
57264;DHT22;43113;53.124;6.092;2022-11-15T03:38:48;6.90;99.90
57264;DHT22;43113;53.124;6.092;2022-11-15T03:49:35;7.00;99.90
57264;DHT22;43113;53.124;6.092;2022-11-15T03:52:03;7.00;99.90
57264;DHT22;43113;53.124;6.092;2022-11-15T03:54:29;7.00;99.90
57264;DHT22;43113;53.124;6.092;2022-11-15T03:56:55;7.30;99.90
57264;DHT22;43113;53.124;6.092;2022-11-15T03:59:21;7.10;99.90
57264;DHT22;43113;53.124;6.092;2022-11-15T04:01:47;7.10;99.90
57264;DHT22;43113;53.124;6.092;2022-11-15T04:04:13;7.00;99.90
57264;DHT22;43113;53.124;6.092;2022-11-15T04:06:38;7.10;99.90
57264;DHT22;43113;53.124;6.092;2022-11-15T04:09:04;7.10;99.90
57264;DHT22;43113;53.124;6.092;2022-11-15T04:11:30;7.10;99.90
57264;DHT22;43113;53.124;6.092;2022-11-15T04:13:55;7.10;99.90
57264;DHT22;43113;53.124;6.092;2022-11-15T04:16:21;7.10;99.90
57264;DHT22;43113;53.124;6.092;2022-11-15T04:18:47;7.20;99.90
57264;DHT22;43113;53.124;6.092;2022-11-15T04:24:20;7.20;99.90
57264;DHT22;43113;53.124;6.092;2022-11-15T04:26:45;8.10;99.90
57264;DHT22;43113;53.124;6.092;2022-11-15T04:29:11;8.20;99.90
57264;DHT22;43113;53.124;6.092;2022-11-15T04:31:55;7.30;99.90
57264;DHT22;43113;53.124;6.092;2022-11-15T04:34:21;8.00;99.90
57264;DHT22;43113;53.124;6.092;2022-11-15T04:36:47;7.30;99.90
57264;DHT22;43113;53.124;6.092;2022-11-15T04:39:31;8.50;99.90
57264;DHT22;43113;53.124;6.092;2022-11-15T04:41:57;7.40;99.90
57264;DHT22;43113;53.124;6.092;2022-11-15T04:44:22;8.40;99.90
57264;DHT22;43113;53.124;6.092;2022-11-15T04:46:48;7.40;99.90
57264;DHT22;43113;53.124;6.092;2022-11-15T04:49:14;7.50;99.90
57264;DHT22;43113;53.124;6.092;2022-11-15T04:51:39;8.60;99.90
57264;DHT22;43113;53.124;6.092;2022-11-15T04:54:05;8.30;99.90
57264;DHT22;43113;53.124;6.092;2022-11-15T04:56:31;7.50;99.90
57264;DHT22;43113;53.124;6.092;2022-11-15T04:58:57;7.60;99.90
57264;DHT22;43113;53.124;6.092;2022-11-15T05:01:23;9.00;99.90
57264;DHT22;43113;53.124;6.092;2022-11-15T05:03:48;7.60;99.90
57264;DHT22;43113;53.124;6.092;2022-11-15T05:06:36;7.70;99.90
57264;DHT22;43113;53.124;6.092;2022-11-15T05:09:01;8.00;99.90
57264;DHT22;43113;53.124;6.092;2022-11-15T05:11:27;7.70;99.90
57264;DHT22;43113;53.124;6.092;2022-11-15T05:13:53;8.90;99.90
57264;DHT22;43113;53.124;6.092;2022-11-15T05:16:19;7.80;99.90
57264;DHT22;43113;53.124;6.092;2022-11-15T05:18:45;7.80;99.90
57264;DHT22;43113;53.124;6.092;2022-11-15T05:21:13;8.10;99.90
57264;DHT22;43113;53.124;6.092;2022-11-15T05:23:40;7.80;99.90
57264;DHT22;43113;53.124;6.092;2022-11-15T05:26:07;7.90;99.90
57264;DHT22;43113;53.124;6.092;2022-11-15T05:28:34;8.80;99.90
57264;DHT22;43113;53.124;6.092;2022-11-15T05:31:08;8.30;99.90
57264;DHT22;43113;53.124;6.092;2022-11-15T05:33:35;8.00;99.90
57264;DHT22;43113;53.124;6.092;2022-11-15T05:36:17;8.00;99.90
57264;DHT22;43113;53.124;6.092;2022-11-15T05:38:49;8.10;99.90
57264;DHT22;43113;53.124;6.092;2022-11-15T05:41:18;8.10;99.90
57264;DHT22;43113;53.124;6.092;2022-11-15T05:43:46;8.10;99.90
57264;DHT22;43113;53.124;6.092;2022-11-15T05:46:14;9.30;99.90
57264;DHT22;43113;53.124;6.092;2022-11-15T05:48:42;8.20;99.90
57264;DHT22;43113;53.124;6.092;2022-11-15T05:51:09;8.20;99.90
57264;DHT22;43113;53.124;6.092;2022-11-15T05:53:39;8.30;99.90
57264;DHT22;43113;53.124;6.092;2022-11-15T05:56:05;8.40;99.90
57264;DHT22;43113;53.124;6.092;2022-11-15T05:58:36;8.50;99.90
57264;DHT22;43113;53.124;6.092;2022-11-15T06:01:02;9.40;99.90
57264;DHT22;43113;53.124;6.092;2022-11-15T06:03:28;8.60;99.90
57264;DHT22;43113;53.124;6.092;2022-11-15T06:05:54;8.70;99.90
57264;DHT22;43113;53.124;6.092;2022-11-15T06:08:20;8.70;99.90
57264;DHT22;43113;53.124;6.092;2022-11-15T06:10:45;8.70;99.90
57264;DHT22;43113;53.124;6.092;2022-11-15T06:13:11;9.10;99.90
57264;DHT22;43113;53.124;6.092;2022-11-15T06:15:37;9.80;99.90
57264;DHT22;43113;53.124;6.092;2022-11-15T06:18:02;9.40;99.90
57264;DHT22;43113;53.124;6.092;2022-11-15T06:20:29;8.90;99.90
57264;DHT22;43113;53.124;6.092;2022-11-15T06:22:59;9.00;99.90
57264;DHT22;43113;53.124;6.092;2022-11-15T06:25:26;9.10;99.90
57264;DHT22;43113;53.124;6.092;2022-11-15T06:27:57;9.10;99.90
57264;DHT22;43113;53.124;6.092;2022-11-15T06:32:58;9.20;99.90
57264;DHT22;43113;53.124;6.092;2022-11-15T06:35:29;9.20;99.90
57264;DHT22;43113;53.124;6.092;2022-11-15T06:37:55;9.30;99.90
57264;DHT22;43113;53.124;6.092;2022-11-15T06:40:21;9.30;99.90
57264;DHT22;43113;53.124;6.092;2022-11-15T06:42:47;10.20;99.90
57264;DHT22;43113;53.124;6.092;2022-11-15T06:45:13;9.30;99.90
57264;DHT22;43113;53.124;6.092;2022-11-15T06:47:45;10.00;99.90
57264;DHT22;43113;53.124;6.092;2022-11-15T06:50:11;9.40;99.90
57264;DHT22;43113;53.124;6.092;2022-11-15T06:52:37;9.30;99.90
57264;DHT22;43113;53.124;6.092;2022-11-15T06:55:03;9.40;99.90
57264;DHT22;43113;53.124;6.092;2022-11-15T06:57:28;9.40;99.90
57264;DHT22;43113;53.124;6.092;2022-11-15T06:59:54;9.50;99.90
57264;DHT22;43113;53.124;6.092;2022-11-15T07:02:20;9.80;99.90
57264;DHT22;43113;53.124;6.092;2022-11-15T07:04:45;9.50;99.90
57264;DHT22;43113;53.124;6.092;2022-11-15T07:07:11;9.60;99.90
57264;DHT22;43113;53.124;6.092;2022-11-15T07:09:37;9.60;99.90
57264;DHT22;43113;53.124;6.092;2022-11-15T07:12:03;9.60;99.90
57264;DHT22;43113;53.124;6.092;2022-11-15T07:14:28;9.60;99.90
57264;DHT22;43113;53.124;6.092;2022-11-15T07:16:54;10.80;99.90
57264;DHT22;43113;53.124;6.092;2022-11-15T07:21:46;9.80;99.90
57264;DHT22;43113;53.124;6.092;2022-11-15T07:24:12;9.80;99.90
57264;DHT22;43113;53.124;6.092;2022-11-15T07:26:40;10.50;99.90
57264;DHT22;43113;53.124;6.092;2022-11-15T07:29:06;9.80;99.90
57264;DHT22;43113;53.124;6.092;2022-11-15T07:31:32;9.80;99.90
57264;DHT22;43113;53.124;6.092;2022-11-15T07:33:57;9.90;99.90
57264;DHT22;43113;53.124;6.092;2022-11-15T07:36:23;9.90;99.90
57264;DHT22;43113;53.124;6.092;2022-11-15T07:41:16;10.00;99.90
57264;DHT22;43113;53.124;6.092;2022-11-15T07:43:42;10.40;99.90
57264;DHT22;43113;53.124;6.092;2022-11-15T07:46:08;10.00;99.90
57264;DHT22;43113;53.124;6.092;2022-11-15T07:48:38;10.00;99.90
57264;DHT22;43113;53.124;6.092;2022-11-15T07:51:06;10.10;99.90
57264;DHT22;43113;53.124;6.092;2022-11-15T07:53:32;10.10;99.90
57264;DHT22;43113;53.124;6.092;2022-11-15T07:55:58;10.00;99.90
57264;DHT22;43113;53.124;6.092;2022-11-15T07:58:24;10.10;99.90
57264;DHT22;43113;53.124;6.092;2022-11-15T08:00:49;10.10;99.90
57264;DHT22;43113;53.124;6.092;2022-11-15T08:03:16;10.20;99.90
57264;DHT22;43113;53.124;6.092;2022-11-15T08:05:42;10.20;99.90
57264;DHT22;43113;53.124;6.092;2022-11-15T08:08:10;10.20;99.90
57264;DHT22;43113;53.124;6.092;2022-11-15T08:10:37;10.20;99.90
57264;DHT22;43113;53.124;6.092;2022-11-15T08:13:03;10.30;99.90
57264;DHT22;43113;53.124;6.092;2022-11-15T08:15:30;10.30;99.90
57264;DHT22;43113;53.124;6.092;2022-11-15T08:18:02;10.40;99.90
57264;DHT22;43113;53.124;6.092;2022-11-15T08:20:29;10.40;99.90
57264;DHT22;43113;53.124;6.092;2022-11-15T08:22:59;10.40;99.90
57264;DHT22;43113;53.124;6.092;2022-11-15T08:25:26;10.50;99.90
57264;DHT22;43113;53.124;6.092;2022-11-15T08:27:54;10.50;99.90
57264;DHT22;43113;53.124;6.092;2022-11-15T08:30:20;10.50;99.90
57264;DHT22;43113;53.124;6.092;2022-11-15T08:35:13;10.60;99.90
57264;DHT22;43113;53.124;6.092;2022-11-15T08:37:38;10.80;99.90
57264;DHT22;43113;53.124;6.092;2022-11-15T08:40:05;10.90;99.90
57264;DHT22;43113;53.124;6.092;2022-11-15T08:42:30;10.90;99.90
57264;DHT22;43113;53.124;6.092;2022-11-15T08:44:56;11.00;99.90
57264;DHT22;43113;53.124;6.092;2022-11-15T08:47:22;11.00;99.90
57264;DHT22;43113;53.124;6.092;2022-11-15T08:49:48;11.00;99.90
57264;DHT22;43113;53.124;6.092;2022-11-15T08:52:14;11.10;99.90
57264;DHT22;43113;53.124;6.092;2022-11-15T08:54:40;11.10;99.90
57264;DHT22;43113;53.124;6.092;2022-11-15T08:57:06;11.30;99.90
57264;DHT22;43113;53.124;6.092;2022-11-15T08:59:32;11.40;99.90
57264;DHT22;43113;53.124;6.092;2022-11-15T09:01:58;11.60;99.90
57264;DHT22;43113;53.124;6.092;2022-11-15T09:04:23;11.60;99.90
57264;DHT22;43113;53.124;6.092;2022-11-15T09:06:49;11.50;99.90
57264;DHT22;43113;53.124;6.092;2022-11-15T09:09:15;11.50;99.90
57264;DHT22;43113;53.124;6.092;2022-11-15T09:11:41;11.40;99.90
57264;DHT22;43113;53.124;6.092;2022-11-15T09:14:06;11.40;99.90
57264;DHT22;43113;53.124;6.092;2022-11-15T09:16:32;11.40;99.90
57264;DHT22;43113;53.124;6.092;2022-11-15T09:18:58;11.40;99.90
57264;DHT22;43113;53.124;6.092;2022-11-15T09:21:23;11.60;99.90
57264;DHT22;43113;53.124;6.092;2022-11-15T09:23:52;11.30;99.90
57264;DHT22;43113;53.124;6.092;2022-11-15T09:26:18;11.30;99.90
57264;DHT22;43113;53.124;6.092;2022-11-15T09:28:44;11.30;99.90
57264;DHT22;43113;53.124;6.092;2022-11-15T09:31:10;11.30;99.90
57264;DHT22;43113;53.124;6.092;2022-11-15T09:33:36;11.30;99.90
57264;DHT22;43113;53.124;6.092;2022-11-15T09:36:04;11.40;99.90
57264;DHT22;43113;53.124;6.092;2022-11-15T09:38:31;11.40;99.90
57264;DHT22;43113;53.124;6.092;2022-11-15T09:49:17;11.80;99.90
57264;DHT22;43113;53.124;6.092;2022-11-15T09:51:47;11.90;99.90
57264;DHT22;43113;53.124;6.092;2022-11-15T09:54:35;11.90;99.90
57264;DHT22;43113;53.124;6.092;2022-11-15T10:04:48;12.10;99.90
57264;DHT22;43113;53.124;6.092;2022-11-15T10:07:24;12.10;99.90
57264;DHT22;43113;53.124;6.092;2022-11-15T10:10:00;12.10;99.90
57264;DHT22;43113;53.124;6.092;2022-11-15T10:12:27;12.10;99.90
57264;DHT22;43113;53.124;6.092;2022-11-15T10:15:02;12.10;99.90
57264;DHT22;43113;53.124;6.092;2022-11-15T10:25:29;12.10;99.90
57264;DHT22;43113;53.124;6.092;2022-11-15T10:30:40;12.10;99.90
57264;DHT22;43113;53.124;6.092;2022-11-15T10:38:51;12.10;99.90
57264;DHT22;43113;53.124;6.092;2022-11-15T10:41:39;12.10;99.90
57264;DHT22;43113;53.124;6.092;2022-11-15T10:46:39;12.20;99.90
57264;DHT22;43113;53.124;6.092;2022-11-15T10:49:24;12.20;99.90
57264;DHT22;43113;53.124;6.092;2022-11-15T10:51:54;12.30;99.90
57264;DHT22;43113;53.124;6.092;2022-11-15T10:57:16;12.50;99.90
57264;DHT22;43113;53.124;6.092;2022-11-15T10:59:48;12.60;99.90
57264;DHT22;43113;53.124;6.092;2022-11-15T11:04:59;12.60;99.90
57264;DHT22;43113;53.124;6.092;2022-11-15T11:07:30;12.60;99.90
57264;DHT22;43113;53.124;6.092;2022-11-15T11:09:58;12.60;99.90
57264;DHT22;43113;53.124;6.092;2022-11-15T11:12:32;12.70;99.90
57264;DHT22;43113;53.124;6.092;2022-11-15T11:15:00;12.70;99.90
57264;DHT22;43113;53.124;6.092;2022-11-15T11:17:43;12.70;99.90
57264;DHT22;43113;53.124;6.092;2022-11-15T11:37:31;12.70;99.90
57264;DHT22;43113;53.124;6.092;2022-11-15T11:42:39;12.60;99.90
57264;DHT22;43113;53.124;6.092;2022-11-15T11:45:19;12.60;99.90
57264;DHT22;43113;53.124;6.092;2022-11-15T11:48:02;12.50;99.90
57264;DHT22;43113;53.124;6.092;2022-11-15T11:50:31;12.50;99.90
57264;DHT22;43113;53.124;6.092;2022-11-15T11:52:59;12.50;99.90
57264;DHT22;43113;53.124;6.092;2022-11-15T11:55:59;12.50;99.90
57264;DHT22;43113;53.124;6.092;2022-11-15T11:58:42;12.60;99.90
57264;DHT22;43113;53.124;6.092;2022-11-15T12:06:54;12.70;99.90
57264;DHT22;43113;53.124;6.092;2022-11-15T12:09:39;12.70;99.90
57264;DHT22;43113;53.124;6.092;2022-11-15T12:12:21;12.70;99.90
57264;DHT22;43113;53.124;6.092;2022-11-15T12:17:23;12.90;99.90
57264;DHT22;43113;53.124;6.092;2022-11-15T12:19:49;13.00;99.90
57264;DHT22;43113;53.124;6.092;2022-11-15T12:22:22;13.10;99.90
57264;DHT22;43113;53.124;6.092;2022-11-15T12:24:58;13.10;99.90
57264;DHT22;43113;53.124;6.092;2022-11-15T12:27:36;13.30;99.90
57264;DHT22;43113;53.124;6.092;2022-11-15T12:30:15;13.40;99.90
57264;DHT22;43113;53.124;6.092;2022-11-15T12:32:57;13.50;99.90
57264;DHT22;43113;53.124;6.092;2022-11-15T12:35:37;13.50;99.90
57264;DHT22;43113;53.124;6.092;2022-11-15T12:38:04;13.40;99.90
57264;DHT22;43113;53.124;6.092;2022-11-15T12:40:35;13.40;99.90
57264;DHT22;43113;53.124;6.092;2022-11-15T12:45:45;13.50;99.90
57264;DHT22;43113;53.124;6.092;2022-11-15T12:58:56;13.90;99.90
57264;DHT22;43113;53.124;6.092;2022-11-15T13:07:03;14.00;99.90
57264;DHT22;43113;53.124;6.092;2022-11-15T13:17:35;13.70;99.90
57264;DHT22;43113;53.124;6.092;2022-11-15T13:28:01;13.40;99.90
57264;DHT22;43113;53.124;6.092;2022-11-15T13:30:30;13.40;99.90
57264;DHT22;43113;53.124;6.092;2022-11-15T13:33:00;13.50;99.90
57264;DHT22;43113;53.124;6.092;2022-11-15T13:35:28;13.60;99.90
57264;DHT22;43113;53.124;6.092;2022-11-15T13:37:57;13.50;99.90
57264;DHT22;43113;53.124;6.092;2022-11-15T13:40:34;13.60;99.90
57264;DHT22;43113;53.124;6.092;2022-11-15T13:43:26;13.70;99.90
57264;DHT22;43113;53.124;6.092;2022-11-15T13:46:17;13.70;99.90
57264;DHT22;43113;53.124;6.092;2022-11-15T13:48:44;13.60;99.90
57264;DHT22;43113;53.124;6.092;2022-11-15T13:51:21;13.40;99.90
57264;DHT22;43113;53.124;6.092;2022-11-15T13:54:07;13.30;99.90
57264;DHT22;43113;53.124;6.092;2022-11-15T13:56:33;13.30;99.90
57264;DHT22;43113;53.124;6.092;2022-11-15T13:59:07;13.10;99.90
57264;DHT22;43113;53.124;6.092;2022-11-15T14:01:33;13.00;99.90
57264;DHT22;43113;53.124;6.092;2022-11-15T14:04:00;12.90;99.90
57264;DHT22;43113;53.124;6.092;2022-11-15T14:06:28;12.80;99.90
57264;DHT22;43113;53.124;6.092;2022-11-15T14:11:30;12.60;99.90
57264;DHT22;43113;53.124;6.092;2022-11-15T14:16:36;12.40;99.90
57264;DHT22;43113;53.124;6.092;2022-11-15T14:19:03;12.30;99.90
57264;DHT22;43113;53.124;6.092;2022-11-15T14:21:30;12.20;99.90
57264;DHT22;43113;53.124;6.092;2022-11-15T14:26:41;12.00;99.90
57264;DHT22;43113;53.124;6.092;2022-11-15T14:29:27;11.90;99.90
57264;DHT22;43113;53.124;6.092;2022-11-15T14:32:05;11.90;99.90
57264;DHT22;43113;53.124;6.092;2022-11-15T14:34:32;11.80;99.90
57264;DHT22;43113;53.124;6.092;2022-11-15T14:36:58;11.70;99.90
57264;DHT22;43113;53.124;6.092;2022-11-15T14:39:23;11.60;99.90
57264;DHT22;43113;53.124;6.092;2022-11-15T14:41:50;11.60;99.90
57264;DHT22;43113;53.124;6.092;2022-11-15T14:44:16;11.60;99.90
57264;DHT22;43113;53.124;6.092;2022-11-15T14:46:44;11.50;99.90
57264;DHT22;43113;53.124;6.092;2022-11-15T14:49:09;11.40;99.90
57264;DHT22;43113;53.124;6.092;2022-11-15T14:51:35;11.40;99.90
57264;DHT22;43113;53.124;6.092;2022-11-15T14:54:01;11.30;99.90
57264;DHT22;43113;53.124;6.092;2022-11-15T14:56:27;11.20;99.90
57264;DHT22;43113;53.124;6.092;2022-11-15T14:58:52;11.20;99.90
57264;DHT22;43113;53.124;6.092;2022-11-15T15:01:23;11.10;99.90
57264;DHT22;43113;53.124;6.092;2022-11-15T15:03:49;11.00;99.90
57264;DHT22;43113;53.124;6.092;2022-11-15T15:06:18;11.00;99.90
57264;DHT22;43113;53.124;6.092;2022-11-15T15:08:44;10.90;99.90
57264;DHT22;43113;53.124;6.092;2022-11-15T15:11:18;10.80;99.90
57264;DHT22;43113;53.124;6.092;2022-11-15T15:13:45;10.90;99.90
57264;DHT22;43113;53.124;6.092;2022-11-15T15:16:11;10.90;99.90
57264;DHT22;43113;53.124;6.092;2022-11-15T15:18:36;10.90;99.90
57264;DHT22;43113;53.124;6.092;2022-11-15T15:21:02;10.90;99.90
57264;DHT22;43113;53.124;6.092;2022-11-15T15:23:32;10.90;99.90
57264;DHT22;43113;53.124;6.092;2022-11-15T15:25:59;10.90;99.90
57264;DHT22;43113;53.124;6.092;2022-11-15T15:28:24;10.90;99.90
57264;DHT22;43113;53.124;6.092;2022-11-15T15:30:50;10.90;99.90
57264;DHT22;43113;53.124;6.092;2022-11-15T15:33:16;10.90;99.90
57264;DHT22;43113;53.124;6.092;2022-11-15T15:35:42;10.80;99.90
57264;DHT22;43113;53.124;6.092;2022-11-15T15:38:11;10.80;99.90
57264;DHT22;43113;53.124;6.092;2022-11-15T15:40:37;10.80;99.90
57264;DHT22;43113;53.124;6.092;2022-11-15T15:43:03;10.70;99.90
57264;DHT22;43113;53.124;6.092;2022-11-15T15:45:29;10.70;99.90
57264;DHT22;43113;53.124;6.092;2022-11-15T15:47:55;10.70;99.90
57264;DHT22;43113;53.124;6.092;2022-11-15T15:50:26;10.60;99.90
57264;DHT22;43113;53.124;6.092;2022-11-15T15:52:55;10.60;99.90
57264;DHT22;43113;53.124;6.092;2022-11-15T15:55:22;10.50;99.90
57264;DHT22;43113;53.124;6.092;2022-11-15T15:57:48;10.40;99.90
57264;DHT22;43113;53.124;6.092;2022-11-15T16:00:14;10.40;99.90
57264;DHT22;43113;53.124;6.092;2022-11-15T16:02:41;10.30;99.90
57264;DHT22;43113;53.124;6.092;2022-11-15T16:05:07;10.30;99.90
57264;DHT22;43113;53.124;6.092;2022-11-15T16:07:33;10.30;99.90
57264;DHT22;43113;53.124;6.092;2022-11-15T16:09:59;10.30;99.90
57264;DHT22;43113;53.124;6.092;2022-11-15T16:12:29;10.30;99.90
57264;DHT22;43113;53.124;6.092;2022-11-15T16:14:55;10.40;99.90
57264;DHT22;43113;53.124;6.092;2022-11-15T16:17:26;10.40;99.90
57264;DHT22;43113;53.124;6.092;2022-11-15T16:19:52;10.50;99.90
57264;DHT22;43113;53.124;6.092;2022-11-15T16:22:18;10.40;99.90
57264;DHT22;43113;53.124;6.092;2022-11-15T16:24:43;10.70;99.90
57264;DHT22;43113;53.124;6.092;2022-11-15T16:27:17;10.50;99.90
57264;DHT22;43113;53.124;6.092;2022-11-15T16:29:43;10.50;99.90
57264;DHT22;43113;53.124;6.092;2022-11-15T16:32:09;10.50;99.90
57264;DHT22;43113;53.124;6.092;2022-11-15T16:34:35;10.60;99.90
57264;DHT22;43113;53.124;6.092;2022-11-15T16:37:01;10.70;99.90
57264;DHT22;43113;53.124;6.092;2022-11-15T16:39:27;10.70;99.90
57264;DHT22;43113;53.124;6.092;2022-11-15T16:41:56;10.70;99.90
57264;DHT22;43113;53.124;6.092;2022-11-15T16:44:22;10.70;99.90
57264;DHT22;43113;53.124;6.092;2022-11-15T16:46:49;10.70;99.90
57264;DHT22;43113;53.124;6.092;2022-11-15T16:49:17;10.70;99.90
57264;DHT22;43113;53.124;6.092;2022-11-15T16:51:48;10.70;99.90
57264;DHT22;43113;53.124;6.092;2022-11-15T16:54:14;10.80;99.90
57264;DHT22;43113;53.124;6.092;2022-11-15T16:56:41;10.80;99.90
57264;DHT22;43113;53.124;6.092;2022-11-15T16:59:08;10.80;99.90
57264;DHT22;43113;53.124;6.092;2022-11-15T17:01:37;10.80;99.90
57264;DHT22;43113;53.124;6.092;2022-11-15T17:04:11;10.80;99.90
57264;DHT22;43113;53.124;6.092;2022-11-15T17:06:39;10.80;99.90
57264;DHT22;43113;53.124;6.092;2022-11-15T17:09:06;10.80;99.90
57264;DHT22;43113;53.124;6.092;2022-11-15T17:11:31;10.80;99.90
57264;DHT22;43113;53.124;6.092;2022-11-15T17:13:58;10.80;99.90
57264;DHT22;43113;53.124;6.092;2022-11-15T17:16:24;10.90;99.90
57264;DHT22;43113;53.124;6.092;2022-11-15T17:18:51;10.90;99.90
57264;DHT22;43113;53.124;6.092;2022-11-15T17:21:19;10.90;99.90
57264;DHT22;43113;53.124;6.092;2022-11-15T17:23:45;10.80;99.90
57264;DHT22;43113;53.124;6.092;2022-11-15T17:26:13;10.90;99.90
57264;DHT22;43113;53.124;6.092;2022-11-15T17:28:39;10.90;99.90
57264;DHT22;43113;53.124;6.092;2022-11-15T17:31:07;10.90;99.90
57264;DHT22;43113;53.124;6.092;2022-11-15T17:33:33;10.90;99.90
57264;DHT22;43113;53.124;6.092;2022-11-15T17:36:01;10.90;99.90
57264;DHT22;43113;53.124;6.092;2022-11-15T17:38:27;11.00;99.90
57264;DHT22;43113;53.124;6.092;2022-11-15T17:41:08;11.00;99.90
57264;DHT22;43113;53.124;6.092;2022-11-15T17:43:35;11.10;99.90
57264;DHT22;43113;53.124;6.092;2022-11-15T17:46:05;11.10;99.90
57264;DHT22;43113;53.124;6.092;2022-11-15T17:48:31;11.10;99.90
57264;DHT22;43113;53.124;6.092;2022-11-15T17:51:02;11.00;99.90
57264;DHT22;43113;53.124;6.092;2022-11-15T17:53:33;11.20;99.90
57264;DHT22;43113;53.124;6.092;2022-11-15T17:56:04;11.10;99.90
57264;DHT22;43113;53.124;6.092;2022-11-15T17:58:33;11.10;99.90
57264;DHT22;43113;53.124;6.092;2022-11-15T18:03:37;11.20;99.90
57264;DHT22;43113;53.124;6.092;2022-11-15T18:06:05;11.20;99.90
57264;DHT22;43113;53.124;6.092;2022-11-15T18:08:31;11.30;99.90
57264;DHT22;43113;53.124;6.092;2022-11-15T18:13:27;11.30;99.90
57264;DHT22;43113;53.124;6.092;2022-11-15T18:15:54;11.40;99.90
57264;DHT22;43113;53.124;6.092;2022-11-15T18:18:28;11.50;99.90
57264;DHT22;43113;53.124;6.092;2022-11-15T18:21:24;11.50;99.90
57264;DHT22;43113;53.124;6.092;2022-11-15T18:23:55;11.40;99.90
57264;DHT22;43113;53.124;6.092;2022-11-15T18:26:22;11.40;99.90
57264;DHT22;43113;53.124;6.092;2022-11-15T18:28:52;11.50;99.90
57264;DHT22;43113;53.124;6.092;2022-11-15T18:31:21;11.40;99.90
57264;DHT22;43113;53.124;6.092;2022-11-15T18:33:48;11.60;99.90